createdAt,value
2022-12-23T00:00:38.607Z,5.13
2022-12-23T00:03:05.555Z,10.48
2022-12-23T00:05:38.185Z,4.57
2022-12-23T00:08:06.230Z,7.32
2022-12-23T00:10:33.877Z,5.40
2022-12-23T00:13:19.063Z,9.43
2022-12-23T00:15:45.665Z,6.38
2022-12-23T00:18:12.333Z,8.75
2022-12-23T00:20:38.926Z,12.30
2022-12-23T00:23:06.141Z,11.90
2022-12-23T00:25:40.324Z,10.35
2022-12-23T00:28:24.523Z,5.95
2022-12-23T00:30:58.671Z,7.80
2022-12-23T00:33:28.267Z,7.07
2022-12-23T00:35:56.026Z,7.25
2022-12-23T00:38:41.387Z,6.80
2022-12-23T00:43:57.337Z,7.57
2022-12-23T00:46:24.177Z,5.50
2022-12-23T00:49:09.514Z,5.45
2022-12-23T00:51:36.156Z,5.95
2022-12-23T00:54:03.104Z,7.78
2022-12-23T00:56:30.132Z,8.93
2022-12-23T00:58:57.532Z,6.82
2022-12-23T01:01:43.513Z,7.43
2022-12-23T01:04:34.881Z,11.00
2022-12-23T01:07:04.871Z,7.82
2022-12-23T01:09:32.003Z,12.43
2022-12-23T01:11:58.712Z,12.60
2022-12-23T01:14:25.984Z,11.43
2022-12-23T01:16:52.796Z,13.50
2022-12-23T01:19:19.435Z,12.23
2022-12-23T01:21:46.113Z,14.10
2022-12-23T01:24:12.765Z,13.75
2022-12-23T01:26:39.515Z,12.02
2022-12-23T01:29:06.256Z,14.23
2022-12-23T01:31:32.984Z,14.65
2022-12-23T01:33:59.643Z,12.57
2022-12-23T01:36:26.388Z,14.30
2022-12-23T01:38:55.136Z,13.10
2022-12-23T01:41:49.848Z,22.00
2022-12-23T01:44:52.185Z,13.73
2022-12-23T01:47:36.187Z,17.58
2022-12-23T01:50:25.335Z,21.38
2022-12-23T01:53:02.989Z,16.30
2022-12-23T01:55:38.507Z,18.73
2022-12-23T01:58:15.495Z,19.33
2022-12-23T02:01:01.504Z,24.08
2022-12-23T02:03:43.470Z,24.23
2022-12-23T02:06:45.762Z,19.60
2022-12-23T02:09:18.543Z,22.95
2022-12-23T02:12:00.234Z,21.65
2022-12-23T02:14:54.647Z,25.13
2022-12-23T02:17:28.086Z,21.13
2022-12-23T02:20:38.768Z,30.92
2022-12-23T02:23:40.738Z,26.58
2022-12-23T02:26:30.409Z,24.13
2022-12-23T02:29:12.388Z,18.88
2022-12-23T02:32:01.619Z,30.80
2022-12-23T02:35:06.269Z,29.40
2022-12-23T02:37:54.400Z,27.98
2022-12-23T02:40:27.643Z,34.55
2022-12-23T02:43:19.105Z,30.60
2022-12-23T02:45:54.604Z,26.63
2022-12-23T02:48:49.363Z,31.27
2022-12-23T02:51:16.744Z,31.02
2022-12-23T02:53:54.303Z,26.25
2022-12-23T02:56:23.657Z,29.63
2022-12-23T02:59:01.639Z,32.70
2022-12-23T03:01:30.946Z,38.70
2022-12-23T03:03:57.837Z,34.08
2022-12-23T03:06:39.286Z,30.83
2022-12-23T03:09:06.956Z,30.20
2022-12-23T03:11:56.524Z,37.10
2022-12-23T03:14:36.035Z,31.42
2022-12-23T03:17:25.408Z,39.03
2022-12-23T03:20:04.445Z,34.65
2022-12-23T03:22:43.084Z,38.63
2022-12-23T03:25:19.692Z,36.13
2022-12-23T03:28:06.132Z,42.70
2022-12-23T03:30:35.319Z,44.20
2022-12-23T03:33:09.651Z,34.72
2022-12-23T03:35:59.668Z,37.05
2022-12-23T03:38:27.955Z,28.88
2022-12-23T03:40:58.472Z,32.63
2022-12-23T03:43:30.354Z,28.58
2022-12-23T03:46:09.046Z,34.22
2022-12-23T03:48:56.058Z,27.48
2022-12-23T03:51:28.216Z,34.05
2022-12-23T03:54:07.257Z,30.77
2022-12-23T03:56:43.089Z,31.42
2022-12-23T03:59:23.272Z,34.30
2022-12-23T04:01:59.399Z,34.33
2022-12-23T04:04:34.849Z,43.10
2022-12-23T04:07:10.824Z,37.25
2022-12-23T04:09:38.611Z,46.72
2022-12-23T04:12:06.964Z,43.13
2022-12-23T04:14:35.160Z,35.38
2022-12-23T04:17:01.842Z,44.60
2022-12-23T04:19:28.599Z,49.67
2022-12-23T04:21:57.693Z,56.53
2022-12-23T04:24:24.408Z,56.22
2022-12-23T04:26:51.031Z,51.85
2022-12-23T04:29:17.733Z,46.17
2022-12-23T04:31:44.347Z,39.20
2022-12-23T04:34:11.073Z,53.50
2022-12-23T04:36:37.736Z,38.90
2022-12-23T04:39:04.415Z,44.05
2022-12-23T04:41:31.129Z,48.90
2022-12-23T04:43:57.774Z,54.83
2022-12-23T04:46:24.474Z,75.45
2022-12-23T04:48:51.148Z,65.47
2022-12-23T04:51:17.752Z,89.75
2022-12-23T04:53:44.458Z,98.40
2022-12-23T04:56:11.135Z,94.38
2022-12-23T04:58:38.054Z,118.43
2022-12-23T05:01:10.041Z,92.68
2022-12-23T05:03:37.792Z,99.30
2022-12-23T05:06:05.373Z,103.70
2022-12-23T05:08:32.413Z,114.68
2022-12-23T05:10:59.094Z,116.85
2022-12-23T05:13:26.478Z,95.28
2022-12-23T05:15:54.962Z,101.90
2022-12-23T05:18:22.435Z,99.35
2022-12-23T05:20:49.732Z,88.07
2022-12-23T05:23:16.409Z,102.50
2022-12-23T05:25:43.123Z,105.78
2022-12-23T05:28:10.155Z,106.00
2022-12-23T05:30:36.825Z,102.65
2022-12-23T05:33:03.546Z,108.07
2022-12-23T05:35:30.413Z,87.95
2022-12-23T05:37:57.625Z,106.35
2022-12-23T05:40:27.576Z,116.78
2022-12-23T05:42:58.928Z,144.43
2022-12-23T05:45:25.790Z,120.55
2022-12-23T05:47:52.605Z,131.23
2022-12-23T05:50:22.138Z,129.13
2022-12-23T05:52:49.188Z,116.03
2022-12-23T05:55:16.134Z,104.90
2022-12-23T05:57:42.911Z,108.05
2022-12-23T06:00:10.120Z,120.13
2022-12-23T06:02:40.516Z,137.02
2022-12-23T06:05:07.939Z,134.38
2022-12-23T06:07:34.554Z,184.50
2022-12-23T06:10:01.386Z,118.38
2022-12-23T06:12:28.099Z,130.95
2022-12-23T06:14:54.858Z,124.88
2022-12-23T06:17:21.582Z,122.38
2022-12-23T06:19:48.573Z,118.90
2022-12-23T06:22:18.430Z,126.03
2022-12-23T06:24:45.053Z,139.10
2022-12-23T06:27:11.766Z,147.60
2022-12-23T06:29:38.361Z,140.45
2022-12-23T06:32:05.457Z,130.77
2022-12-23T06:34:32.569Z,99.45
2022-12-23T06:36:59.439Z,96.57
2022-12-23T06:39:26.645Z,84.32
2022-12-23T06:41:53.296Z,89.40
2022-12-23T06:44:20.055Z,104.88
2022-12-23T06:46:46.687Z,106.35
2022-12-23T06:49:13.971Z,109.40
2022-12-23T06:51:41.316Z,96.18
2022-12-23T06:54:11.705Z,105.88
2022-12-23T06:56:38.952Z,83.45
2022-12-23T06:59:05.659Z,108.93
2022-12-23T07:01:32.452Z,85.65
2022-12-23T07:03:59.200Z,92.88
2022-12-23T07:06:25.828Z,85.03
2022-12-23T07:08:52.514Z,85.72
2022-12-23T07:11:19.164Z,84.55
2022-12-23T07:13:46.838Z,83.43
2022-12-23T07:16:13.529Z,77.20
2022-12-23T07:18:40.353Z,74.45
2022-12-23T07:21:13.388Z,80.93
2022-12-23T07:23:44.770Z,79.40
2022-12-23T07:26:11.395Z,78.15
2022-12-23T07:28:38.236Z,86.30
2022-12-23T07:31:08.185Z,86.13
2022-12-23T07:33:34.827Z,80.03
2022-12-23T07:36:01.419Z,83.68
2022-12-23T07:38:29.110Z,87.22
2022-12-23T07:40:55.758Z,89.43
2022-12-23T07:43:22.365Z,82.78
2022-12-23T07:45:53.958Z,89.25
2022-12-23T07:48:24.176Z,92.70
2022-12-23T07:50:51.241Z,102.38
2022-12-23T07:53:18.768Z,109.38
2022-12-23T07:55:45.398Z,82.90
2022-12-23T07:58:12.026Z,100.88
2022-12-23T08:00:38.613Z,88.93
2022-12-23T08:03:05.544Z,84.78
2022-12-23T08:05:32.424Z,87.53
2022-12-23T08:07:59.190Z,95.30
2022-12-23T08:10:25.994Z,96.10
2022-12-23T08:12:52.752Z,89.90
2022-12-23T08:15:19.725Z,91.80
2022-12-23T08:17:46.453Z,89.72
2022-12-23T08:20:13.170Z,90.55
2022-12-23T08:22:39.820Z,81.25
2022-12-23T08:25:06.913Z,87.45
2022-12-23T08:27:33.855Z,85.18
2022-12-23T08:30:00.449Z,92.65
2022-12-23T08:32:27.794Z,71.45
2022-12-23T08:34:58.880Z,79.63
2022-12-23T08:37:25.728Z,60.40
2022-12-23T08:39:52.344Z,76.15
2022-12-23T08:42:19.668Z,77.35
2022-12-23T08:44:46.476Z,62.67
2022-12-23T08:47:13.277Z,79.13
2022-12-23T08:49:40.288Z,76.65
2022-12-23T08:52:06.942Z,66.88
2022-12-23T08:54:33.700Z,76.45
2022-12-23T08:57:00.600Z,49.28
2022-12-23T08:59:27.215Z,52.60
2022-12-23T09:01:53.935Z,47.25
2022-12-23T09:04:20.670Z,57.90
2022-12-23T09:06:47.522Z,71.15
2022-12-23T09:09:15.663Z,80.07
2022-12-23T09:11:42.503Z,65.38
2022-12-23T09:14:10.055Z,43.28
2022-12-23T09:16:36.997Z,40.95
2022-12-23T09:19:04.271Z,47.13
2022-12-23T09:21:30.936Z,51.72
2022-12-23T09:23:57.540Z,60.38
2022-12-23T09:26:29.720Z,42.97
2022-12-23T09:28:57.167Z,35.50
2022-12-23T09:31:26.692Z,29.83
2022-12-23T09:33:56.208Z,35.33
2022-12-23T09:36:23.654Z,44.30
2022-12-23T09:38:55.567Z,39.00
2022-12-23T09:41:28.922Z,52.10
2022-12-23T09:44:30.363Z,34.20
2022-12-23T09:47:02.140Z,27.95
2022-12-23T09:49:28.971Z,27.75
2022-12-23T09:52:01.457Z,33.45
2022-12-23T09:54:31.490Z,31.00
2022-12-23T09:57:04.862Z,32.35
2022-12-23T10:00:06.963Z,30.27
2022-12-23T10:02:39.840Z,32.17
2022-12-23T10:05:36.766Z,52.87
2022-12-23T10:08:12.927Z,49.85
2022-12-23T10:10:50.752Z,42.90
2022-12-23T10:13:26.510Z,45.83
2022-12-23T10:15:55.140Z,40.80
2022-12-23T10:18:47.032Z,31.42
2022-12-23T10:21:36.568Z,34.90
2022-12-23T10:24:12.477Z,44.72
2022-12-23T10:26:46.767Z,51.67
2022-12-23T10:29:30.306Z,57.25
2022-12-23T10:32:03.138Z,59.22
2022-12-23T10:34:52.449Z,75.00
2022-12-23T10:37:44.092Z,85.63
2022-12-23T10:40:33.981Z,88.82
2022-12-23T10:43:09.805Z,96.90
2022-12-23T10:45:51.990Z,89.85
2022-12-23T10:48:30.740Z,83.68
2022-12-23T10:51:38.255Z,82.38
2022-12-23T10:54:25.557Z,134.05
2022-12-23T10:56:53.965Z,126.10
2022-12-23T10:59:30.564Z,124.32
2022-12-23T11:02:05.615Z,105.20
2022-12-23T11:04:37.717Z,81.32
2022-12-23T11:07:42.275Z,57.17
2022-12-23T11:10:00.233Z,64.40
2022-12-23T11:12:42.786Z,79.72
2022-12-23T11:15:28.466Z,46.10
2022-12-23T11:18:21.435Z,61.47
2022-12-23T11:21:14.267Z,58.92
2022-12-23T11:23:40.972Z,81.65
2022-12-23T11:26:09.632Z,75.35
2022-12-23T11:28:51.596Z,82.25
2022-12-23T11:31:27.384Z,63.17
2022-12-23T11:33:59.680Z,80.10
2022-12-23T11:36:28.771Z,79.03
2022-12-23T11:39:32.759Z,91.88
2022-12-23T11:42:18.475Z,76.45
2022-12-23T11:44:51.652Z,60.22
2022-12-23T11:47:22.008Z,59.45
2022-12-23T11:49:54.459Z,79.90
2022-12-23T11:52:24.170Z,73.03
2022-12-23T11:54:57.010Z,64.03
2022-12-23T11:57:53.181Z,83.18
2022-12-23T12:00:30.284Z,51.70
2022-12-23T12:03:00.225Z,71.45
2022-12-23T12:05:37.120Z,69.70
2022-12-23T12:08:08.993Z,97.43
2022-12-23T12:10:38.104Z,84.90
2022-12-23T12:13:36.253Z,76.80
2022-12-23T12:16:30.835Z,133.10
2022-12-23T12:19:04.383Z,100.05
2022-12-23T12:21:36.539Z,175.35
2022-12-23T12:24:20.032Z,170.27
2022-12-23T12:26:51.575Z,110.55
2022-12-23T12:29:41.488Z,85.30
2022-12-23T12:32:22.447Z,88.85
2022-12-23T12:34:54.564Z,75.35
2022-12-23T12:37:56.451Z,68.38
2022-12-23T12:40:44.404Z,90.32
2022-12-23T12:43:16.642Z,82.43
2022-12-23T12:46:02.451Z,74.95
2022-12-23T12:48:55.081Z,70.20
2022-12-23T12:51:51.173Z,61.78
2022-12-23T12:54:42.548Z,61.28
2022-12-23T12:57:14.878Z,50.60
2022-12-23T12:59:43.954Z,49.42
2022-12-23T13:02:41.723Z,43.70
2022-12-23T13:05:30.229Z,49.70
2022-12-23T13:08:50.850Z,36.15
2022-12-23T13:11:35.483Z,42.00
2022-12-23T13:14:07.484Z,50.58
2022-12-23T13:16:53.891Z,52.30
2022-12-23T13:20:10.326Z,59.40
2022-12-23T13:22:38.490Z,47.97
2022-12-23T13:25:20.416Z,48.95
2022-12-23T13:27:55.768Z,57.60
2022-12-23T13:30:24.071Z,44.08
2022-12-23T13:33:12.633Z,38.97
2022-12-23T13:35:48.047Z,40.08
2022-12-23T13:38:37.785Z,43.22
2022-12-23T13:41:23.206Z,53.22
2022-12-23T13:44:00.010Z,38.42
2022-12-23T13:46:26.672Z,33.17
2022-12-23T13:49:05.514Z,53.25
2022-12-23T13:51:44.377Z,53.63
2022-12-23T13:54:32.578Z,52.80
2022-12-23T13:57:20.811Z,61.08
2022-12-23T14:00:04.985Z,125.13
2022-12-23T14:02:42.435Z,195.55
2022-12-23T14:05:28.818Z,123.28
2022-12-23T14:07:56.232Z,103.90
2022-12-23T14:10:24.254Z,57.10
2022-12-23T14:12:52.913Z,53.30
2022-12-23T14:15:31.692Z,52.85
2022-12-23T14:18:13.380Z,59.28
2022-12-23T14:20:48.934Z,41.78
2022-12-23T14:23:24.597Z,44.70
2022-12-23T14:26:29.379Z,57.03
2022-12-23T14:29:08.033Z,61.10
2022-12-23T14:31:44.679Z,54.88
2022-12-23T14:34:17.519Z,49.20
2022-12-23T14:37:21.745Z,58.80
2022-12-23T14:39:49.294Z,51.65
2022-12-23T14:42:35.734Z,34.70
2022-12-23T14:45:41.582Z,36.58
2022-12-23T14:48:33.773Z,65.38
2022-12-23T14:51:03.950Z,44.92
2022-12-23T14:53:33.321Z,44.38
2022-12-23T14:56:26.125Z,64.15
2022-12-23T14:59:20.681Z,163.30
2022-12-23T15:01:47.525Z,46.65
2022-12-23T15:04:14.169Z,38.63
2022-12-23T15:06:47.025Z,130.70
2022-12-23T15:09:22.432Z,34.42
2022-12-23T15:11:49.789Z,36.05
2022-12-23T15:14:41.472Z,45.50
2022-12-23T15:17:26.424Z,72.35
2022-12-23T15:19:54.332Z,33.08
2022-12-23T15:22:28.277Z,27.35
2022-12-23T15:24:56.936Z,25.90
2022-12-23T15:27:28.807Z,32.25
2022-12-23T15:29:56.055Z,22.63
2022-12-23T15:32:24.381Z,25.00
2022-12-23T15:34:52.544Z,26.75
2022-12-23T15:37:25.510Z,23.17
2022-12-23T15:39:59.555Z,25.83
2022-12-23T15:42:31.672Z,25.50
2022-12-23T15:44:58.700Z,24.42
2022-12-23T15:47:38.569Z,22.33
2022-12-23T15:50:13.204Z,23.80
2022-12-23T15:52:42.690Z,29.85
2022-12-23T15:55:24.099Z,21.63
2022-12-23T15:57:52.033Z,17.35
2022-12-23T16:00:24.710Z,19.52
2022-12-23T16:03:02.390Z,20.65
2022-12-23T16:05:31.405Z,17.27
2022-12-23T16:08:29.185Z,17.23
2022-12-23T16:11:17.007Z,22.13
2022-12-23T16:13:59.372Z,22.77
2022-12-23T16:16:33.542Z,24.45
2022-12-23T16:19:00.480Z,22.05
2022-12-23T16:21:35.049Z,26.60
2022-12-23T16:24:06.865Z,19.98
2022-12-23T16:26:40.662Z,23.83
2022-12-23T16:29:09.855Z,48.60
2022-12-23T16:31:37.706Z,25.98
2022-12-23T16:34:07.335Z,21.73
2022-12-23T16:36:36.147Z,27.67
2022-12-23T16:39:06.946Z,19.40
2022-12-23T16:41:34.235Z,60.17
2022-12-23T16:44:01.458Z,24.70
2022-12-23T16:46:31.731Z,59.30
2022-12-23T16:49:01.574Z,38.97
2022-12-23T16:51:33.777Z,26.70
2022-12-23T16:54:01.078Z,32.58
2022-12-23T16:56:33.819Z,16.17
2022-12-23T16:59:00.591Z,58.58
2022-12-23T17:01:29.945Z,49.97
2022-12-23T17:03:56.829Z,51.08
2022-12-23T17:06:24.670Z,46.88
2022-12-23T17:08:53.055Z,8.52
2022-12-23T17:11:29.289Z,7.45
2022-12-23T17:14:03.866Z,54.35
2022-12-23T17:16:32.970Z,179.23
2022-12-23T17:19:00.085Z,15.35
2022-12-23T17:21:39.006Z,116.35
2022-12-23T17:24:23.203Z,16.42
2022-12-23T17:26:51.213Z,10.15
2022-12-23T17:29:18.075Z,9.00
2022-12-23T17:31:45.370Z,24.77
2022-12-23T17:34:20.303Z,9.07
2022-12-23T17:39:17.989Z,12.07
2022-12-23T17:41:44.664Z,5.80
2022-12-23T17:44:14.497Z,13.25
2022-12-23T17:46:41.249Z,9.68
2022-12-23T17:49:08.572Z,34.00
2022-12-23T17:51:35.468Z,27.92
2022-12-23T17:54:04.365Z,25.33
2022-12-23T17:56:31.170Z,16.92
2022-12-23T17:58:58.451Z,11.05
2022-12-23T18:01:28.111Z,17.95
2022-12-23T18:03:55.919Z,13.95
2022-12-23T18:06:24.787Z,16.67
2022-12-23T18:08:51.741Z,17.35
2022-12-23T18:11:23.389Z,16.90
2022-12-23T18:13:52.204Z,17.88
2022-12-23T18:16:21.875Z,20.77
2022-12-23T18:18:48.568Z,24.00
2022-12-23T18:21:22.302Z,29.83
2022-12-23T18:23:49.586Z,27.85
2022-12-23T18:26:16.690Z,30.20
2022-12-23T18:28:43.696Z,31.80
2022-12-23T18:31:19.517Z,34.88
2022-12-23T18:33:46.302Z,37.50
2022-12-23T18:36:28.232Z,39.25
2022-12-23T18:38:56.973Z,43.92
2022-12-23T18:41:25.484Z,42.85
2022-12-23T18:43:52.502Z,43.90
2022-12-23T18:46:20.314Z,44.78
2022-12-23T18:48:47.669Z,49.85
2022-12-23T18:51:21.208Z,48.45
2022-12-23T18:53:48.254Z,59.05
2022-12-23T18:56:17.156Z,61.05
2022-12-23T18:58:43.818Z,61.00
2022-12-23T19:01:15.032Z,58.95
2022-12-23T19:03:42.888Z,60.65
2022-12-23T19:06:12.450Z,48.38
2022-12-23T19:08:40.348Z,44.88
2022-12-23T19:11:16.024Z,50.03
2022-12-23T19:13:42.921Z,61.72
2022-12-23T19:16:14.925Z,62.65
2022-12-23T19:18:41.719Z,60.60
2022-12-23T19:21:09.313Z,49.20
2022-12-23T19:23:36.293Z,45.13
2022-12-23T19:26:05.723Z,36.90
2022-12-23T19:28:33.485Z,39.80
2022-12-23T19:31:00.219Z,33.13
2022-12-23T19:33:26.880Z,28.33
2022-12-23T19:35:53.567Z,29.38
2022-12-23T19:38:20.296Z,30.23
2022-12-23T19:40:56.302Z,25.05
2022-12-23T19:43:23.012Z,23.58
2022-12-23T19:46:04.985Z,23.35
2022-12-23T19:48:31.869Z,26.33
2022-12-23T19:51:00.230Z,26.90
2022-12-23T19:53:27.538Z,30.35
2022-12-23T19:56:14.825Z,28.13
2022-12-23T19:58:43.775Z,24.73
2022-12-23T20:01:20.118Z,33.15
2022-12-23T20:03:48.629Z,31.63
2022-12-23T20:06:18.826Z,36.22
2022-12-23T20:08:45.690Z,36.00
2022-12-23T20:11:14.769Z,43.53
2022-12-23T20:13:41.452Z,37.92
2022-12-23T20:16:08.928Z,36.33
2022-12-23T20:18:36.333Z,36.30
2022-12-23T20:21:03.636Z,39.17
2022-12-23T20:23:31.522Z,39.83
2022-12-23T20:25:58.293Z,35.13
2022-12-23T20:28:25.503Z,48.92
2022-12-23T20:31:09.118Z,32.55
2022-12-23T20:33:37.255Z,28.77
2022-12-23T20:36:05.952Z,36.30
2022-12-23T20:38:42.117Z,29.42
2022-12-23T20:41:11.519Z,33.63
2022-12-23T20:43:38.160Z,32.65
2022-12-23T20:46:06.711Z,44.42
2022-12-23T20:48:34.758Z,33.63
2022-12-23T20:51:05.503Z,34.22
2022-12-23T20:53:32.397Z,46.53
2022-12-23T20:56:07.689Z,39.63
2022-12-23T20:58:54.716Z,38.70
2022-12-23T21:01:30.531Z,40.13
2022-12-23T21:03:59.573Z,46.83
2022-12-23T21:06:27.101Z,49.72
2022-12-23T21:08:55.734Z,53.35
2022-12-23T21:11:23.320Z,54.95
2022-12-23T21:13:51.012Z,43.30
2022-12-23T21:16:18.102Z,41.53
2022-12-23T21:18:50.352Z,30.38
2022-12-23T21:21:17.058Z,28.40
2022-12-23T21:23:43.811Z,26.75
2022-12-23T21:26:15.288Z,30.67
2022-12-23T21:28:43.562Z,26.45
2022-12-23T21:31:10.444Z,24.23
2022-12-23T21:33:42.229Z,24.95
2022-12-23T21:36:11.770Z,17.08
2022-12-23T21:38:43.387Z,16.85
2022-12-23T21:41:13.296Z,21.48
2022-12-23T21:43:40.313Z,29.08
2022-12-23T21:46:13.715Z,49.60
2022-12-23T21:48:41.228Z,43.70
2022-12-23T21:51:18.343Z,42.03
2022-12-23T21:53:47.532Z,41.35
2022-12-23T21:56:17.417Z,35.80
2022-12-23T21:58:44.471Z,31.02
2022-12-23T22:01:16.871Z,42.00
2022-12-23T22:03:45.027Z,30.95
2022-12-23T22:06:23.764Z,32.35
2022-12-23T22:08:52.676Z,28.20
2022-12-23T22:11:22.926Z,25.63
2022-12-23T22:13:50.487Z,24.70
2022-12-23T22:16:21.203Z,25.42
2022-12-23T22:18:49.071Z,25.75
2022-12-23T22:21:23.499Z,28.90
2022-12-23T22:23:51.920Z,19.60
2022-12-23T22:26:26.066Z,23.60
2022-12-23T22:28:55.280Z,31.73
2022-12-23T22:31:38.168Z,32.15
2022-12-23T22:34:06.646Z,37.13
2022-12-23T22:36:34.241Z,32.67
2022-12-23T22:39:02.148Z,27.05
2022-12-23T22:41:30.026Z,34.38
2022-12-23T22:43:57.848Z,27.33
2022-12-23T22:46:25.351Z,26.50
2022-12-23T22:48:52.933Z,40.85
2022-12-23T22:51:26.219Z,41.58
2022-12-23T22:53:53.563Z,49.47
2022-12-23T22:56:22.084Z,45.30
2022-12-23T22:58:49.734Z,46.03
2022-12-23T23:01:28.267Z,47.95
2022-12-23T23:03:57.982Z,44.60
2022-12-23T23:06:38.480Z,45.67
2022-12-23T23:09:07.366Z,57.40
2022-12-23T23:11:34.188Z,43.33
2022-12-23T23:14:00.924Z,24.45
2022-12-23T23:16:27.748Z,31.67
2022-12-23T23:18:54.495Z,34.72
2022-12-23T23:21:21.702Z,23.92
2022-12-23T23:23:48.876Z,41.20
2022-12-23T23:26:15.719Z,29.55
2022-12-23T23:28:43.238Z,35.45
2022-12-23T23:33:58.150Z,51.22
2022-12-23T23:36:25.049Z,35.60
2022-12-23T23:38:51.811Z,39.67
2022-12-23T23:41:22.907Z,36.72
2022-12-23T23:43:50.884Z,29.50
2022-12-23T23:46:17.628Z,33.58
2022-12-23T23:48:44.358Z,37.80
2022-12-23T23:51:13.878Z,33.38
2022-12-23T23:53:40.835Z,25.17
2022-12-23T23:56:08.381Z,25.17
2022-12-23T23:58:36.668Z,24.20
